createdAt,value
2019-05-19T00:01:41.068Z,4.40
2019-05-19T00:04:12.026Z,4.12
2019-05-19T00:06:43.485Z,4.33
2019-05-19T00:09:16.621Z,4.35
2019-05-19T00:11:47.130Z,4.87
2019-05-19T00:14:18.095Z,4.33
2019-05-19T00:16:49.071Z,4.15
2019-05-19T00:19:26.576Z,4.33
2019-05-19T00:21:52.766Z,5.05
2019-05-19T00:24:23.780Z,4.45
2019-05-19T00:26:54.756Z,4.78
2019-05-19T00:29:25.738Z,4.33
2019-05-19T00:31:56.670Z,4.47
2019-05-19T00:34:27.663Z,4.95
2019-05-19T00:36:58.643Z,4.30
2019-05-19T00:39:29.740Z,4.10
2019-05-19T00:42:00.708Z,4.45
2019-05-19T00:44:31.704Z,4.28
2019-05-19T00:47:02.673Z,3.98
2019-05-19T00:49:41.515Z,4.65
2019-05-19T00:52:06.312Z,4.70
2019-05-19T00:54:37.307Z,5.00
2019-05-19T00:57:08.350Z,4.53
2019-05-19T00:59:39.479Z,3.92
2019-05-19T01:02:10.473Z,4.35
2019-05-19T01:04:41.441Z,4.80
2019-05-19T01:07:12.454Z,5.30
2019-05-19T01:09:44.702Z,3.90
2019-05-19T01:12:15.694Z,4.08
2019-05-19T01:14:46.684Z,4.55
2019-05-19T01:17:18.933Z,4.97
2019-05-19T01:19:56.012Z,4.22
2019-05-19T01:22:22.665Z,3.75
2019-05-19T01:24:53.668Z,4.37
2019-05-19T01:27:24.717Z,4.17
2019-05-19T01:29:55.676Z,4.42
2019-05-19T01:32:26.655Z,4.05
2019-05-19T01:34:57.628Z,4.95
2019-05-19T01:37:28.635Z,4.83
2019-05-19T01:40:00.698Z,3.85
2019-05-19T01:42:31.679Z,4.78
2019-05-19T01:45:02.732Z,3.95
2019-05-19T01:47:33.693Z,4.35
2019-05-19T01:50:17.548Z,4.42
2019-05-19T01:52:39.341Z,4.40
2019-05-19T01:55:10.649Z,4.97
2019-05-19T01:57:41.614Z,4.37
2019-05-19T02:00:13.650Z,4.67
2019-05-19T02:02:44.641Z,4.15
2019-05-19T02:05:15.824Z,4.40
2019-05-19T02:07:46.828Z,5.53
2019-05-19T02:10:17.897Z,5.08
2019-05-19T02:12:48.913Z,5.50
2019-05-19T02:15:21.168Z,4.92
2019-05-19T02:17:52.132Z,5.10
2019-05-19T02:20:32.618Z,5.30
2019-05-19T02:22:57.032Z,5.67
2019-05-19T02:25:27.998Z,5.37
2019-05-19T02:27:59.338Z,5.70
2019-05-19T02:30:30.311Z,5.45
2019-05-19T02:33:01.352Z,5.10
2019-05-19T02:35:32.335Z,5.08
2019-05-19T02:38:03.309Z,5.72
2019-05-19T02:40:34.947Z,5.12
2019-05-19T02:43:05.927Z,5.53
2019-05-19T02:45:37.661Z,5.60
2019-05-19T02:48:08.702Z,4.45
2019-05-19T02:50:51.462Z,4.65
2019-05-19T02:53:12.904Z,5.15
2019-05-19T02:55:45.144Z,5.42
2019-05-19T02:58:16.382Z,5.25
2019-05-19T03:00:47.377Z,5.72
2019-05-19T03:03:18.343Z,5.20
2019-05-19T03:05:49.354Z,5.00
2019-05-19T03:08:20.316Z,4.83
2019-05-19T03:10:51.288Z,5.70
2019-05-19T03:13:22.264Z,5.78
2019-05-19T03:15:53.225Z,6.25
2019-05-19T03:18:24.213Z,5.95
2019-05-19T03:21:09.880Z,5.92
2019-05-19T03:23:27.842Z,5.72
2019-05-19T03:25:58.803Z,5.47
2019-05-19T03:28:29.787Z,5.12
2019-05-19T03:31:18.644Z,5.22
2019-05-19T03:33:51.238Z,5.85
2019-05-19T03:36:22.202Z,6.17
2019-05-19T03:38:53.177Z,5.35
2019-05-19T03:41:25.153Z,5.08
2019-05-19T03:43:56.127Z,5.12
2019-05-19T03:46:27.096Z,5.60
2019-05-19T03:48:58.715Z,5.37
2019-05-19T03:51:32.040Z,5.28
2019-05-19T03:54:03.123Z,6.05
2019-05-19T03:56:34.101Z,5.60
2019-05-19T03:59:05.090Z,5.90
2019-05-19T04:01:36.075Z,5.85
2019-05-19T04:04:07.072Z,5.50
2019-05-19T04:06:38.049Z,5.58
2019-05-19T04:09:09.043Z,5.60
2019-05-19T04:11:40.055Z,5.78
2019-05-19T04:14:11.024Z,6.00
2019-05-19T04:16:41.997Z,5.90
2019-05-19T04:19:12.990Z,6.03
2019-05-19T04:21:48.828Z,5.60
2019-05-19T04:24:17.086Z,5.53
2019-05-19T04:26:48.051Z,5.97
2019-05-19T04:29:19.107Z,5.78
2019-05-19T04:31:50.117Z,5.40
2019-05-19T04:34:21.097Z,5.42
2019-05-19T04:36:52.122Z,5.15
2019-05-19T04:39:23.112Z,5.47
2019-05-19T04:41:54.091Z,5.62
2019-05-19T04:44:26.367Z,6.30
2019-05-19T04:46:57.332Z,6.20
2019-05-19T04:49:28.353Z,5.65
2019-05-19T04:52:06.624Z,6.42
2019-05-19T04:54:32.002Z,6.92
2019-05-19T04:57:02.992Z,6.50
2019-05-19T04:59:33.967Z,7.10
2019-05-19T05:02:04.950Z,6.78
2019-05-19T05:04:35.962Z,6.15
2019-05-19T05:07:06.958Z,6.28
2019-05-19T05:09:39.246Z,7.08
2019-05-19T05:12:10.231Z,6.78
2019-05-19T05:14:41.223Z,6.40
2019-05-19T05:17:12.200Z,6.85
2019-05-19T05:19:43.198Z,7.17
2019-05-19T05:22:21.826Z,6.30
2019-05-19T05:24:46.867Z,6.30
2019-05-19T05:27:17.835Z,8.25
2019-05-19T05:29:48.826Z,6.85
2019-05-19T05:32:19.818Z,6.90
2019-05-19T05:34:50.799Z,7.20
2019-05-19T05:37:21.788Z,7.33
2019-05-19T05:39:53.431Z,7.62
2019-05-19T05:42:24.479Z,6.95
2019-05-19T05:44:55.531Z,6.80
2019-05-19T05:47:26.525Z,7.95
2019-05-19T05:49:57.514Z,6.42
2019-05-19T05:52:37.934Z,7.33
2019-05-19T05:55:01.169Z,7.03
2019-05-19T05:57:32.165Z,7.47
2019-05-19T06:00:03.694Z,7.55
2019-05-19T06:02:34.704Z,6.22
2019-05-19T06:05:06.691Z,7.15
2019-05-19T06:07:38.769Z,7.80
2019-05-19T06:10:10.853Z,6.58
2019-05-19T06:12:41.818Z,6.65
2019-05-19T06:15:12.944Z,6.87
2019-05-19T06:17:44.100Z,7.42
2019-05-19T06:20:15.140Z,5.58
2019-05-19T06:22:56.028Z,6.75
2019-05-19T06:25:18.808Z,6.50
2019-05-19T06:27:49.845Z,6.05
2019-05-19T06:30:20.903Z,6.85
2019-05-19T06:32:53.606Z,5.75
2019-05-19T06:35:25.215Z,5.83
2019-05-19T06:37:56.318Z,5.45
2019-05-19T06:40:27.279Z,5.97
2019-05-19T06:42:58.292Z,6.70
2019-05-19T06:45:29.324Z,5.92
2019-05-19T06:48:00.285Z,5.37
2019-05-19T06:50:31.267Z,4.85
2019-05-19T06:53:13.561Z,5.47
2019-05-19T06:55:34.975Z,5.37
2019-05-19T06:58:05.974Z,4.90
2019-05-19T07:00:37.967Z,5.28
2019-05-19T07:03:08.970Z,6.10
2019-05-19T07:05:39.938Z,5.15
2019-05-19T07:08:10.925Z,5.67
2019-05-19T07:10:41.897Z,5.60
2019-05-19T07:13:12.861Z,5.60
2019-05-19T07:15:43.845Z,5.37
2019-05-19T07:18:14.823Z,5.00
2019-05-19T07:20:45.801Z,4.97
2019-05-19T07:23:36.590Z,5.35
2019-05-19T07:26:07.573Z,4.97
2019-05-19T07:28:38.595Z,4.67
2019-05-19T07:31:09.568Z,4.70
2019-05-19T07:33:44.615Z,5.40
2019-05-19T07:36:15.563Z,4.40
2019-05-19T07:38:49.809Z,4.20
2019-05-19T07:41:20.782Z,4.28
2019-05-19T07:43:52.142Z,4.45
2019-05-19T07:46:23.094Z,4.20
2019-05-19T07:48:54.082Z,4.55
2019-05-19T07:51:25.065Z,3.85
2019-05-19T07:53:56.108Z,4.53
2019-05-19T07:56:28.733Z,4.70
2019-05-19T07:59:00.673Z,4.17
2019-05-19T08:01:32.435Z,5.17
2019-05-19T08:04:03.394Z,4.72
2019-05-19T08:06:34.730Z,4.97
2019-05-19T08:09:06.919Z,4.85
2019-05-19T08:11:41.908Z,4.10
2019-05-19T08:14:15.639Z,4.35
2019-05-19T08:16:46.677Z,4.40
2019-05-19T08:19:19.300Z,5.25
2019-05-19T08:21:51.199Z,4.45
2019-05-19T08:24:22.201Z,4.20
2019-05-19T08:26:53.241Z,4.78
2019-05-19T08:29:24.275Z,4.42
2019-05-19T08:31:55.293Z,5.40
2019-05-19T08:34:26.355Z,4.67
2019-05-19T08:36:57.351Z,4.78
2019-05-19T08:39:28.357Z,5.92
2019-05-19T08:42:04.711Z,6.25
2019-05-19T08:44:38.118Z,6.08
2019-05-19T08:47:09.146Z,7.05
2019-05-19T08:49:44.291Z,6.33
2019-05-19T08:52:15.262Z,6.08
2019-05-19T08:54:46.259Z,8.03
2019-05-19T08:57:17.409Z,7.28
2019-05-19T08:59:48.579Z,7.58
2019-05-19T09:02:19.556Z,7.75
2019-05-19T09:04:50.547Z,7.35
2019-05-19T09:07:21.515Z,7.70
2019-05-19T09:09:52.512Z,8.00
2019-05-19T09:12:23.502Z,7.12
2019-05-19T09:14:54.493Z,7.83
2019-05-19T09:17:25.444Z,6.42
2019-05-19T09:19:57.185Z,8.30
2019-05-19T09:22:28.187Z,7.67
2019-05-19T09:24:59.178Z,8.33
2019-05-19T09:27:30.150Z,8.20
2019-05-19T09:30:01.588Z,7.85
2019-05-19T09:32:32.644Z,7.30
2019-05-19T09:35:03.998Z,7.85
2019-05-19T09:37:35.354Z,7.17
2019-05-19T09:40:13.691Z,7.70
2019-05-19T09:42:44.680Z,7.05
2019-05-19T09:45:15.911Z,6.75
2019-05-19T09:47:46.910Z,7.05
2019-05-19T09:50:18.976Z,6.92
2019-05-19T09:52:51.007Z,6.08
2019-05-19T09:55:21.981Z,6.70
2019-05-19T09:57:52.961Z,6.17
2019-05-19T10:00:24.131Z,6.08
2019-05-19T10:02:55.102Z,5.72
2019-05-19T10:05:26.057Z,5.95
2019-05-19T10:07:57.505Z,5.65
2019-05-19T10:10:39.279Z,6.92
2019-05-19T10:13:10.260Z,6.42
2019-05-19T10:15:41.229Z,6.17
2019-05-19T10:18:12.223Z,6.30
2019-05-19T10:20:43.182Z,5.83
2019-05-19T10:23:14.161Z,6.72
2019-05-19T10:25:45.118Z,5.50
2019-05-19T10:28:16.108Z,7.03
2019-05-19T10:30:47.133Z,6.55
2019-05-19T10:33:18.102Z,6.85
2019-05-19T10:35:49.085Z,5.90
2019-05-19T10:38:20.062Z,6.33
2019-05-19T10:40:51.013Z,6.35
2019-05-19T10:43:21.994Z,5.47
2019-05-19T10:46:03.270Z,5.83
2019-05-19T10:48:34.223Z,5.62
2019-05-19T10:51:05.241Z,6.20
2019-05-19T10:53:36.187Z,6.37
2019-05-19T10:56:07.209Z,6.65
2019-05-19T10:58:38.356Z,5.95
2019-05-19T11:01:09.387Z,6.90
2019-05-19T11:03:40.453Z,6.00
2019-05-19T11:06:11.419Z,6.00
2019-05-19T11:08:42.380Z,6.17
2019-05-19T11:11:13.351Z,5.83
2019-05-19T11:13:44.337Z,6.00
2019-05-19T11:16:15.293Z,5.65
2019-05-19T11:18:46.295Z,5.47
2019-05-19T11:21:17.315Z,5.42
2019-05-19T11:23:49.050Z,5.15
2019-05-19T11:26:20.048Z,5.05
2019-05-19T11:28:51.000Z,5.47
2019-05-19T11:31:21.964Z,5.22
2019-05-19T11:33:53.310Z,5.70
2019-05-19T11:36:24.267Z,5.22
2019-05-19T11:38:55.225Z,5.37
2019-05-19T11:41:26.198Z,5.35
2019-05-19T11:43:57.964Z,5.10
2019-05-19T11:46:29.036Z,5.42
2019-05-19T11:49:00.092Z,5.78
2019-05-19T11:51:31.186Z,5.33
2019-05-19T11:54:02.247Z,5.62
2019-05-19T11:56:33.339Z,5.92
2019-05-19T11:59:04.384Z,5.37
2019-05-19T12:01:35.487Z,5.60
2019-05-19T12:04:06.565Z,5.53
2019-05-19T12:06:40.008Z,5.08
2019-05-19T12:09:11.384Z,5.33
2019-05-19T12:11:42.434Z,5.17
2019-05-19T12:14:13.503Z,5.80
2019-05-19T12:16:44.582Z,5.12
2019-05-19T12:19:15.661Z,5.05
2019-05-19T12:21:46.733Z,5.25
2019-05-19T12:24:17.831Z,6.05
2019-05-19T12:26:48.945Z,5.17
2019-05-19T12:29:20.518Z,5.42
2019-05-19T12:31:52.646Z,5.90
2019-05-19T12:34:24.807Z,5.55
2019-05-19T12:36:55.871Z,5.45
2019-05-19T12:39:26.955Z,6.33
2019-05-19T12:41:58.013Z,5.45
2019-05-19T12:44:29.085Z,5.08
2019-05-19T12:47:00.629Z,6.20
2019-05-19T12:49:31.723Z,5.80
2019-05-19T12:52:02.787Z,5.62
2019-05-19T12:54:33.925Z,5.30
2019-05-19T12:57:05.065Z,5.08
2019-05-19T12:59:36.157Z,5.10
2019-05-19T13:02:07.215Z,5.35
2019-05-19T13:04:38.505Z,5.42
2019-05-19T13:07:09.755Z,5.35
2019-05-19T13:09:40.827Z,5.83
2019-05-19T13:12:11.897Z,5.97
2019-05-19T13:14:42.960Z,5.53
2019-05-19T13:17:14.021Z,5.22
2019-05-19T13:19:45.106Z,4.50
2019-05-19T13:22:16.160Z,4.47
2019-05-19T13:24:47.233Z,4.83
2019-05-19T13:27:18.425Z,4.50
2019-05-19T13:29:49.475Z,5.37
2019-05-19T13:32:20.525Z,5.65
2019-05-19T13:34:51.596Z,5.45
2019-05-19T13:37:22.652Z,5.55
2019-05-19T13:39:54.091Z,5.22
2019-05-19T13:42:25.144Z,5.60
2019-05-19T13:44:56.209Z,5.40
2019-05-19T13:47:27.257Z,5.17
2019-05-19T13:49:58.327Z,5.87
2019-05-19T13:52:29.383Z,5.80
2019-05-19T13:55:00.453Z,5.60
2019-05-19T13:57:31.513Z,5.20
2019-05-19T14:00:02.657Z,5.45
2019-05-19T14:02:33.737Z,4.70
2019-05-19T14:05:05.342Z,4.97
2019-05-19T14:07:37.493Z,4.37
2019-05-19T14:10:09.197Z,4.60
2019-05-19T14:12:40.255Z,5.03
2019-05-19T14:15:11.621Z,4.90
2019-05-19T14:17:42.684Z,4.65
2019-05-19T14:20:14.583Z,5.12
2019-05-19T14:22:45.650Z,4.83
2019-05-19T14:25:17.400Z,4.92
2019-05-19T14:27:48.456Z,4.58
2019-05-19T14:30:20.493Z,4.90
2019-05-19T14:32:51.553Z,4.60
2019-05-19T14:35:22.624Z,4.30
2019-05-19T14:37:53.724Z,5.15
2019-05-19T14:40:24.773Z,4.50
2019-05-19T14:43:00.166Z,4.50
2019-05-19T14:45:31.328Z,4.60
2019-05-19T14:48:02.414Z,4.37
2019-05-19T14:50:33.482Z,4.40
2019-05-19T14:53:04.549Z,4.80
2019-05-19T14:55:35.638Z,4.10
2019-05-19T14:58:06.710Z,4.37
2019-05-19T15:00:38.827Z,4.62
2019-05-19T15:03:10.687Z,4.17
2019-05-19T15:05:41.757Z,4.50
2019-05-19T15:08:13.481Z,3.77
2019-05-19T15:10:45.489Z,3.85
2019-05-19T15:13:17.311Z,4.97
2019-05-19T15:15:48.369Z,5.00
2019-05-19T15:18:19.436Z,4.67
2019-05-19T15:20:50.527Z,5.03
2019-05-19T15:23:21.607Z,4.62
2019-05-19T15:25:52.685Z,4.42
2019-05-19T15:28:23.769Z,4.75
2019-05-19T15:30:54.826Z,4.17
2019-05-19T15:33:25.923Z,4.37
2019-05-19T15:35:57.449Z,5.03
2019-05-19T15:38:28.507Z,4.55
2019-05-19T15:40:59.598Z,5.08
2019-05-19T15:43:30.653Z,5.20
2019-05-19T15:46:01.716Z,5.35
2019-05-19T15:48:32.798Z,5.28
2019-05-19T15:51:03.866Z,4.35
2019-05-19T15:53:34.939Z,5.08
2019-05-19T15:56:06.003Z,4.78
2019-05-19T15:58:37.752Z,4.80
2019-05-19T16:01:08.812Z,5.22
2019-05-19T16:03:39.883Z,5.00
2019-05-19T16:06:10.969Z,4.92
2019-05-19T16:08:42.027Z,4.72
2019-05-19T16:11:13.095Z,5.20
2019-05-19T16:13:44.193Z,4.87
2019-05-19T16:16:15.327Z,5.22
2019-05-19T16:18:46.427Z,5.20
2019-05-19T16:21:17.567Z,4.45
2019-05-19T16:23:48.654Z,5.50
2019-05-19T16:26:19.752Z,4.75
2019-05-19T16:28:50.810Z,4.62
2019-05-19T16:31:21.909Z,4.97
2019-05-19T16:33:52.970Z,4.12
2019-05-19T16:36:24.029Z,5.12
2019-05-19T16:38:55.853Z,4.60
2019-05-19T16:41:26.984Z,4.58
2019-05-19T16:43:58.034Z,5.47
2019-05-19T16:46:29.129Z,4.80
2019-05-19T16:49:01.584Z,5.22
2019-05-19T16:51:32.699Z,4.30
2019-05-19T16:54:05.381Z,4.78
2019-05-19T16:56:36.511Z,4.62
2019-05-19T16:59:07.583Z,4.65
2019-05-19T17:01:38.702Z,4.62
2019-05-19T17:04:09.805Z,4.37
2019-05-19T17:06:40.870Z,4.50
2019-05-19T17:09:11.945Z,4.30
2019-05-19T17:11:43.036Z,4.03
2019-05-19T17:14:14.317Z,4.30
2019-05-19T17:16:45.452Z,3.85
2019-05-19T17:19:16.508Z,3.98
2019-05-19T17:21:48.665Z,3.85
2019-05-19T17:27:26.566Z,4.22
2019-05-19T17:30:00.271Z,3.72
2019-05-19T17:32:32.445Z,4.42
2019-05-19T17:35:04.397Z,3.90
2019-05-19T17:37:39.349Z,4.33
2019-05-19T17:40:11.712Z,4.75
2019-05-19T17:42:44.578Z,4.20
2019-05-19T17:45:16.502Z,3.90
2019-05-19T17:47:47.637Z,3.92
2019-05-19T17:50:31.641Z,5.30
2019-05-19T17:53:03.866Z,4.70
2019-05-19T17:55:36.472Z,4.20
2019-05-19T17:58:08.625Z,5.70
2019-05-19T18:00:44.267Z,6.15
2019-05-19T18:03:15.473Z,6.08
2019-05-19T18:05:46.597Z,4.40
2019-05-19T18:08:17.704Z,5.25
2019-05-19T18:10:49.849Z,5.37
2019-05-19T18:13:31.819Z,4.92
2019-05-19T18:16:14.367Z,4.75
2019-05-19T18:18:50.558Z,5.87
2019-05-19T18:21:21.630Z,4.83
2019-05-19T18:23:52.713Z,5.95
2019-05-19T18:26:29.476Z,5.05
2019-05-19T18:29:00.534Z,6.12
2019-05-19T18:31:31.639Z,6.10
2019-05-19T18:34:03.466Z,6.95
2019-05-19T18:36:34.545Z,6.17
2019-05-19T18:39:07.066Z,6.72
2019-05-19T18:41:38.683Z,7.15
2019-05-19T18:44:09.796Z,6.42
2019-05-19T18:46:40.898Z,5.20
2019-05-19T18:49:11.973Z,4.97
2019-05-19T18:51:44.103Z,4.92
2019-05-19T18:54:15.167Z,4.80
2019-05-19T18:57:07.557Z,5.53
2019-05-19T19:00:24.636Z,4.55
2019-05-19T19:02:51.792Z,4.87
2019-05-19T19:05:23.935Z,5.10
2019-05-19T19:07:55.483Z,5.28
2019-05-19T19:10:26.581Z,4.30
2019-05-19T19:12:57.725Z,4.03
2019-05-19T19:15:28.807Z,4.55
2019-05-19T19:17:59.886Z,4.55
2019-05-19T19:20:34.401Z,5.00
2019-05-19T19:25:36.002Z,3.92
2019-05-19T19:28:22.084Z,4.45
2019-05-19T19:31:17.872Z,4.90
2019-05-19T19:33:49.601Z,4.17
2019-05-19T19:36:20.655Z,4.42
2019-05-19T19:38:54.205Z,5.05
2019-05-19T19:41:25.275Z,4.73
2019-05-19T19:43:57.254Z,4.95
2019-05-19T19:46:28.408Z,5.22
2019-05-19T19:48:59.460Z,5.05
2019-05-19T19:51:30.529Z,4.72
2019-05-19T19:54:01.924Z,5.30
2019-05-19T19:56:33.147Z,4.60
2019-05-19T19:59:04.232Z,5.62
2019-05-19T20:01:35.292Z,5.15
2019-05-19T20:04:06.348Z,5.25
2019-05-19T20:06:37.418Z,5.12
2019-05-19T20:09:08.538Z,5.58
2019-05-19T20:11:39.683Z,5.40
2019-05-19T20:14:15.323Z,5.08
2019-05-19T20:16:47.483Z,5.80
2019-05-19T20:19:18.543Z,6.83
2019-05-19T20:21:49.589Z,6.00
2019-05-19T20:24:20.642Z,6.45
2019-05-19T20:26:51.863Z,6.40
2019-05-19T20:29:23.222Z,6.67
2019-05-19T20:31:54.299Z,5.22
2019-05-19T20:34:25.359Z,4.92
2019-05-19T20:36:56.428Z,5.37
2019-05-19T20:39:27.488Z,6.97
2019-05-19T20:41:58.561Z,5.70
2019-05-19T20:44:29.636Z,5.50
2019-05-19T20:47:00.705Z,5.95
2019-05-19T20:49:31.761Z,5.97
2019-05-19T20:52:03.298Z,5.75
2019-05-19T20:54:34.352Z,5.95
2019-05-19T20:57:05.413Z,5.67
2019-05-19T20:59:36.473Z,5.45
2019-05-19T21:02:07.536Z,5.42
2019-05-19T21:04:38.652Z,5.10
2019-05-19T21:07:09.693Z,4.87
2019-05-19T21:09:40.807Z,4.60
2019-05-19T21:12:11.840Z,4.78
2019-05-19T21:14:43.956Z,5.45
2019-05-19T21:17:15.029Z,5.55
2019-05-19T21:19:46.090Z,5.40
2019-05-19T21:22:17.154Z,5.15
2019-05-19T21:24:48.243Z,5.30
2019-05-19T21:27:19.301Z,4.70
2019-05-19T21:29:50.413Z,5.12
2019-05-19T21:32:21.478Z,4.67
2019-05-19T21:34:52.544Z,4.78
2019-05-19T21:37:23.696Z,4.42
2019-05-19T21:39:54.750Z,5.00
2019-05-19T21:42:26.771Z,5.00
2019-05-19T21:44:57.835Z,5.12
2019-05-19T21:47:28.978Z,4.78
2019-05-19T21:50:00.036Z,4.78
2019-05-19T21:52:31.122Z,4.55
2019-05-19T21:55:03.827Z,5.12
2019-05-19T21:57:34.891Z,4.70
2019-05-19T22:00:09.713Z,5.05
2019-05-19T22:02:40.774Z,4.72
2019-05-19T22:05:12.087Z,5.12
2019-05-19T22:07:50.617Z,4.22
2019-05-19T22:10:21.936Z,4.75
2019-05-19T22:12:53.020Z,3.90
2019-05-19T22:15:24.271Z,4.58
2019-05-19T22:17:56.292Z,4.83
2019-05-19T22:20:27.393Z,4.80
2019-05-19T22:22:58.449Z,4.42
2019-05-19T22:25:29.504Z,5.10
2019-05-19T22:28:00.600Z,4.30
2019-05-19T22:30:31.659Z,4.10
2019-05-19T22:33:04.179Z,5.00
2019-05-19T22:35:35.245Z,4.42
2019-05-19T22:38:09.322Z,4.42
2019-05-19T22:40:39.179Z,4.22
2019-05-19T22:43:10.216Z,4.58
2019-05-19T22:45:41.276Z,4.60
2019-05-19T22:48:12.355Z,4.33
2019-05-19T22:50:45.275Z,3.95
2019-05-19T22:53:16.342Z,4.20
2019-05-19T22:55:47.408Z,4.70
2019-05-19T22:58:18.479Z,4.35
2019-05-19T23:00:49.545Z,3.90
2019-05-19T23:03:20.587Z,4.85
2019-05-19T23:05:51.649Z,4.35
2019-05-19T23:08:23.286Z,4.45
2019-05-19T23:10:54.341Z,4.50
2019-05-19T23:13:25.411Z,4.50
2019-05-19T23:15:56.483Z,4.15
2019-05-19T23:18:27.558Z,4.75
2019-05-19T23:20:59.589Z,4.35
2019-05-19T23:23:30.659Z,4.75
2019-05-19T23:26:01.752Z,4.37
2019-05-19T23:28:32.821Z,4.85
2019-05-19T23:31:03.907Z,4.95
2019-05-19T23:33:35.000Z,4.85
2019-05-19T23:36:06.071Z,4.40
2019-05-19T23:38:37.188Z,3.62
2019-05-19T23:41:09.245Z,4.20
2019-05-19T23:43:40.329Z,4.20
2019-05-19T23:46:11.430Z,4.22
2019-05-19T23:48:43.578Z,4.67
2019-05-19T23:51:14.710Z,4.47
2019-05-19T23:53:45.786Z,4.10
2019-05-19T23:56:16.851Z,4.90
2019-05-19T23:58:52.509Z,4.10
